createdAt,value
2023-04-08T00:01:15.793Z,6.83
2023-04-08T00:04:17.238Z,6.85
2023-04-08T00:07:18.573Z,7.00
2023-04-08T00:10:19.880Z,6.60
2023-04-08T00:13:21.208Z,6.20
2023-04-08T00:16:22.577Z,6.57
2023-04-08T00:19:23.915Z,6.90
2023-04-08T00:22:25.193Z,7.95
2023-04-08T00:25:26.526Z,7.90
2023-04-08T00:28:27.836Z,6.97
2023-04-08T00:31:29.315Z,6.73
2023-04-08T00:34:30.697Z,6.82
2023-04-08T00:37:31.997Z,6.25
2023-04-08T00:40:33.313Z,7.53
2023-04-08T00:43:34.642Z,6.80
2023-04-08T00:46:36.094Z,6.40
2023-04-08T00:49:37.491Z,7.03
2023-04-08T00:52:38.765Z,6.55
2023-04-08T00:55:40.069Z,6.43
2023-04-08T00:58:41.356Z,6.28
2023-04-08T01:01:42.722Z,6.13
2023-04-08T01:04:44.132Z,6.28
2023-04-08T01:07:45.422Z,7.50
2023-04-08T01:10:46.713Z,6.63
2023-04-08T01:13:48.014Z,7.88
2023-04-08T01:16:49.305Z,6.53
2023-04-08T01:19:50.602Z,6.35
2023-04-08T01:22:51.902Z,6.82
2023-04-08T01:25:53.239Z,5.78
2023-04-08T01:28:54.561Z,7.15
2023-04-08T01:31:55.862Z,5.90
2023-04-08T01:34:57.159Z,6.47
2023-04-08T01:37:58.456Z,5.82
2023-04-08T01:40:59.745Z,5.90
2023-04-08T01:44:01.040Z,5.57
2023-04-08T01:47:02.453Z,6.37
2023-04-08T01:50:03.809Z,5.47
2023-04-08T01:53:05.105Z,4.75
2023-04-08T01:56:06.389Z,6.00
2023-04-08T01:59:07.689Z,5.97
2023-04-08T02:02:09.049Z,5.83
2023-04-08T02:05:10.390Z,5.50
2023-04-08T02:08:11.678Z,5.95
2023-04-08T02:11:12.982Z,5.72
2023-04-08T02:14:14.277Z,5.75
2023-04-08T02:17:15.565Z,6.03
2023-04-08T02:20:16.874Z,5.57
2023-04-08T02:23:18.184Z,6.03
2023-04-08T02:26:19.474Z,6.28
2023-04-08T02:29:20.766Z,5.88
2023-04-08T02:32:22.053Z,5.73
2023-04-08T02:35:23.375Z,6.53
2023-04-08T02:38:24.717Z,5.88
2023-04-08T02:41:25.997Z,6.25
2023-04-08T02:44:27.316Z,5.78
2023-04-08T02:47:28.631Z,6.03
2023-04-08T02:50:29.955Z,6.38
2023-04-08T02:53:31.262Z,5.72
2023-04-08T02:56:32.537Z,7.07
2023-04-08T02:59:33.900Z,6.65
2023-04-08T03:02:35.361Z,5.90
2023-04-08T03:05:36.774Z,6.28
2023-04-08T03:08:38.063Z,6.30
2023-04-08T03:11:39.374Z,8.60
2023-04-08T03:14:40.666Z,7.30
2023-04-08T03:17:42.028Z,11.07
2023-04-08T03:20:43.372Z,10.45
2023-04-08T03:23:44.705Z,12.57
2023-04-08T03:26:46.006Z,9.45
2023-04-08T03:29:47.282Z,9.48
2023-04-08T03:32:48.652Z,8.43
2023-04-08T03:35:50.057Z,8.20
2023-04-08T03:38:51.578Z,9.00
2023-04-08T03:41:52.989Z,9.65
2023-04-08T03:44:54.294Z,9.38
2023-04-08T03:47:55.631Z,7.77
2023-04-08T03:50:56.941Z,8.43
2023-04-08T03:53:58.231Z,7.80
2023-04-08T03:56:59.531Z,9.27
2023-04-08T04:00:00.815Z,7.70
2023-04-08T04:03:02.214Z,7.83
2023-04-08T04:06:03.559Z,8.18
2023-04-08T04:09:04.865Z,8.05
2023-04-08T04:12:06.171Z,7.78
2023-04-08T04:15:07.480Z,8.15
2023-04-08T04:18:08.868Z,7.87
2023-04-08T04:21:10.260Z,6.95
2023-04-08T04:24:11.578Z,7.13
2023-04-08T04:27:12.845Z,7.07
2023-04-08T04:30:14.166Z,7.57
2023-04-08T04:33:15.483Z,7.33
2023-04-08T04:36:16.782Z,7.20
2023-04-08T04:39:18.099Z,6.47
2023-04-08T04:42:19.392Z,7.20
2023-04-08T04:45:20.685Z,8.02
2023-04-08T04:48:21.970Z,7.57
2023-04-08T04:51:23.271Z,7.93
2023-04-08T04:54:24.582Z,7.88
2023-04-08T04:57:25.869Z,8.27
2023-04-08T05:00:27.169Z,6.78
2023-04-08T05:03:28.510Z,6.97
2023-04-08T05:06:29.850Z,8.13
2023-04-08T05:09:31.145Z,7.28
2023-04-08T05:12:32.501Z,6.90
2023-04-08T05:15:33.820Z,7.63
2023-04-08T05:18:35.121Z,7.93
2023-04-08T05:21:36.453Z,6.60
2023-04-08T05:24:37.767Z,7.40
2023-04-08T05:27:39.046Z,7.95
2023-04-08T05:30:40.352Z,8.43
2023-04-08T05:33:41.650Z,7.93
2023-04-08T05:36:42.985Z,8.35
2023-04-08T05:39:44.292Z,8.10
2023-04-08T05:42:45.597Z,7.47
2023-04-08T05:45:46.909Z,7.90
2023-04-08T05:48:48.342Z,7.77
2023-04-08T05:51:49.697Z,7.00
2023-04-08T05:54:51.000Z,6.72
2023-04-08T05:57:52.307Z,8.00
2023-04-08T06:00:53.607Z,6.80
2023-04-08T06:03:55.060Z,7.23
2023-04-08T06:06:56.430Z,6.85
2023-04-08T06:09:57.751Z,7.53
2023-04-08T06:12:59.045Z,7.60
2023-04-08T06:16:00.356Z,7.00
2023-04-08T06:19:01.649Z,7.27
2023-04-08T06:22:02.960Z,7.78
2023-04-08T06:25:04.308Z,6.93
2023-04-08T06:28:05.613Z,5.78
2023-04-08T06:31:06.920Z,6.88
2023-04-08T06:34:08.211Z,8.43
2023-04-08T06:37:09.501Z,8.02
2023-04-08T06:40:10.814Z,8.57
2023-04-08T06:43:12.099Z,8.75
2023-04-08T06:46:13.438Z,8.00
2023-04-08T06:49:14.731Z,8.90
2023-04-08T06:52:16.051Z,8.00
2023-04-08T06:55:17.345Z,8.32
2023-04-08T06:58:18.652Z,8.20
2023-04-08T07:01:20.018Z,8.05
2023-04-08T07:04:21.362Z,6.97
2023-04-08T07:07:22.725Z,7.45
2023-04-08T07:10:24.026Z,6.35
2023-04-08T07:13:25.324Z,7.50
2023-04-08T07:16:26.673Z,6.90
2023-04-08T07:19:28.004Z,6.70
2023-04-08T07:22:29.308Z,8.15
2023-04-08T07:25:30.622Z,8.15
2023-04-08T07:28:31.911Z,8.20
2023-04-08T07:31:33.269Z,9.15
2023-04-08T07:34:34.581Z,9.13
2023-04-08T07:37:35.892Z,7.97
2023-04-08T07:40:37.186Z,8.75
2023-04-08T07:43:38.508Z,8.35
2023-04-08T07:46:39.887Z,9.80
2023-04-08T07:49:41.202Z,7.73
2023-04-08T07:52:42.482Z,7.85
2023-04-08T07:55:43.770Z,8.40
2023-04-08T07:58:45.189Z,7.97
2023-04-08T08:01:46.494Z,8.05
2023-04-08T08:04:47.831Z,6.90
2023-04-08T08:07:49.201Z,8.13
2023-04-08T08:10:50.514Z,6.88
2023-04-08T08:13:52.072Z,7.18
2023-04-08T08:16:53.558Z,7.68
2023-04-08T08:19:54.872Z,7.00
2023-04-08T08:22:57.878Z,8.48
2023-04-08T08:25:59.375Z,7.10
2023-04-08T08:29:00.695Z,8.70
2023-04-08T08:32:01.956Z,7.18
2023-04-08T08:35:03.290Z,7.43
2023-04-08T08:38:04.611Z,7.18
2023-04-08T08:41:05.916Z,7.45
2023-04-08T08:44:07.231Z,6.50
2023-04-08T08:47:08.536Z,8.13
2023-04-08T08:50:09.848Z,7.37
2023-04-08T08:53:11.147Z,7.07
2023-04-08T08:59:16.682Z,7.22
2023-04-08T09:02:18.067Z,8.40
2023-04-08T09:05:19.519Z,7.57
2023-04-08T09:08:20.871Z,6.63
2023-04-08T09:11:22.176Z,6.55
2023-04-08T09:14:23.521Z,7.22
2023-04-08T09:17:24.873Z,7.97
2023-04-08T09:20:26.179Z,6.83
2023-04-08T09:23:27.484Z,6.38
2023-04-08T09:26:28.780Z,7.10
2023-04-08T09:29:33.480Z,6.85
2023-04-08T09:32:36.510Z,6.53
2023-04-08T09:35:37.889Z,7.07
2023-04-08T09:38:39.215Z,6.40
2023-04-08T09:41:40.498Z,7.20
2023-04-08T09:44:41.816Z,7.20
2023-04-08T09:47:43.136Z,6.60
2023-04-08T09:50:44.470Z,7.10
2023-04-08T09:53:45.758Z,6.90
2023-04-08T09:56:47.072Z,6.90
2023-04-08T09:59:48.376Z,6.93
2023-04-08T10:02:49.946Z,5.75
2023-04-08T10:05:51.352Z,5.93
2023-04-08T10:08:52.651Z,6.18
2023-04-08T10:11:53.957Z,6.75
2023-04-08T10:14:55.250Z,7.35
2023-04-08T10:17:56.604Z,5.35
2023-04-08T10:20:57.980Z,5.73
2023-04-08T10:23:59.328Z,5.68
2023-04-08T10:27:00.746Z,5.90
2023-04-08T10:30:02.028Z,5.57
2023-04-08T10:33:03.408Z,6.57
2023-04-08T10:36:04.793Z,6.50
2023-04-08T10:39:06.136Z,6.63
2023-04-08T10:42:07.432Z,6.95
2023-04-08T10:45:08.721Z,6.15
2023-04-08T10:48:10.026Z,7.03
2023-04-08T10:51:11.319Z,6.33
2023-04-08T10:54:13.815Z,5.90
2023-04-08T10:57:15.137Z,6.25
2023-04-08T11:00:16.451Z,6.45
2023-04-08T11:03:17.938Z,6.13
2023-04-08T11:06:19.426Z,6.57
2023-04-08T11:09:20.782Z,6.63
2023-04-08T11:12:22.087Z,6.10
2023-04-08T11:15:23.445Z,6.20
2023-04-08T11:18:24.774Z,6.13
2023-04-08T11:21:26.079Z,5.47
2023-04-08T11:24:27.376Z,5.07
2023-04-08T11:27:28.660Z,6.00
2023-04-08T11:30:29.989Z,5.57
2023-04-08T11:33:31.295Z,5.30
2023-04-08T11:36:32.618Z,4.80
2023-04-08T11:39:33.910Z,5.43
2023-04-08T11:42:35.210Z,4.43
2023-04-08T11:45:36.507Z,5.13
2023-04-08T11:48:37.832Z,6.60
2023-04-08T11:51:39.149Z,5.00
2023-04-08T11:54:40.429Z,5.25
2023-04-08T11:57:41.749Z,5.18
2023-04-08T12:00:43.031Z,4.65
2023-04-08T12:03:44.448Z,4.55
2023-04-08T12:06:45.799Z,4.20
2023-04-08T12:09:47.103Z,4.85
2023-04-08T12:12:48.391Z,5.50
2023-04-08T12:15:49.705Z,5.28
2023-04-08T12:18:51.067Z,4.60
2023-04-08T12:21:52.361Z,4.30
2023-04-08T12:24:53.670Z,4.82
2023-04-08T12:27:54.977Z,4.15
2023-04-08T12:30:56.296Z,3.92
2023-04-08T12:33:57.613Z,4.38
2023-04-08T12:36:58.916Z,4.43
2023-04-08T12:40:00.228Z,3.80
2023-04-08T12:43:01.535Z,4.65
2023-04-08T12:46:02.834Z,4.80
2023-04-08T12:49:05.161Z,4.45
2023-04-08T12:52:07.031Z,3.93
2023-04-08T12:55:08.384Z,3.63
2023-04-08T12:58:09.692Z,4.65
2023-04-08T13:01:11.119Z,4.75
2023-04-08T13:04:12.500Z,4.03
2023-04-08T13:07:13.853Z,4.63
2023-04-08T13:10:15.206Z,3.88
2023-04-08T13:13:16.483Z,4.38
2023-04-08T13:16:17.832Z,4.25
2023-04-08T13:19:19.169Z,4.10
2023-04-08T13:22:20.534Z,3.30
2023-04-08T13:25:21.865Z,4.07
2023-04-08T13:28:23.158Z,3.63
2023-04-08T13:31:24.584Z,4.38
2023-04-08T13:34:25.964Z,3.72
2023-04-08T13:37:27.275Z,3.87
2023-04-08T13:40:28.567Z,4.05
2023-04-08T13:43:29.870Z,3.85
2023-04-08T13:46:31.234Z,3.50
2023-04-08T13:49:32.643Z,3.70
2023-04-08T13:52:33.951Z,3.73
2023-04-08T13:55:35.344Z,3.97
2023-04-08T13:58:36.675Z,3.53
2023-04-08T14:01:38.029Z,4.25
2023-04-08T14:04:39.393Z,3.42
2023-04-08T14:07:40.718Z,3.77
2023-04-08T14:10:42.485Z,3.10
2023-04-08T14:13:43.863Z,3.50
2023-04-08T14:16:45.224Z,3.17
2023-04-08T14:19:46.589Z,3.20
2023-04-08T14:22:47.894Z,3.47
2023-04-08T14:25:49.205Z,3.35
2023-04-08T14:28:50.666Z,3.58
2023-04-08T14:31:52.196Z,3.20
2023-04-08T14:34:53.498Z,3.10
2023-04-08T14:37:54.814Z,3.57
2023-04-08T14:40:56.102Z,3.75
2023-04-08T14:43:57.400Z,3.20
2023-04-08T14:46:58.677Z,2.72
2023-04-08T14:49:59.993Z,2.92
2023-04-08T14:53:01.312Z,2.80
2023-04-08T14:56:02.627Z,2.80
2023-04-08T14:59:03.923Z,3.05
2023-04-08T15:02:05.363Z,3.38
2023-04-08T15:05:06.722Z,2.80
2023-04-08T15:08:08.031Z,2.93
2023-04-08T15:11:09.323Z,2.55
2023-04-08T15:14:10.691Z,2.88
2023-04-08T15:17:12.002Z,2.40
2023-04-08T15:20:13.339Z,2.65
2023-04-08T15:23:14.651Z,3.00
2023-04-08T15:26:15.960Z,2.65
2023-04-08T15:29:17.265Z,2.95
2023-04-08T15:32:18.567Z,2.58
2023-04-08T15:35:19.875Z,2.70
2023-04-08T15:38:21.171Z,3.47
2023-04-08T15:41:22.511Z,3.10
2023-04-08T15:44:23.815Z,3.05
2023-04-08T15:47:25.161Z,2.67
2023-04-08T15:50:26.489Z,2.72
2023-04-08T15:53:27.834Z,3.03
2023-04-08T15:56:29.134Z,2.72
2023-04-08T15:59:30.456Z,2.97
2023-04-08T16:02:31.874Z,2.58
2023-04-08T16:05:33.352Z,2.53
2023-04-08T16:08:34.734Z,2.40
2023-04-08T16:11:36.126Z,2.80
2023-04-08T16:14:37.431Z,2.58
2023-04-08T16:17:38.832Z,2.70
2023-04-08T16:20:40.172Z,2.72
2023-04-08T16:23:41.458Z,2.73
2023-04-08T16:26:42.741Z,2.38
2023-04-08T16:29:44.068Z,2.42
2023-04-08T16:32:45.395Z,2.55
2023-04-08T16:35:46.754Z,2.53
2023-04-08T16:38:48.076Z,2.43
2023-04-08T16:41:49.359Z,2.40
2023-04-08T16:44:50.670Z,2.20
2023-04-08T16:47:52.023Z,2.60
2023-04-08T16:50:53.356Z,2.90
2023-04-08T16:53:56.359Z,2.90
2023-04-08T16:56:59.735Z,2.42
2023-04-08T17:00:01.050Z,2.65
2023-04-08T17:03:02.557Z,2.30
2023-04-08T17:06:03.997Z,2.40
2023-04-08T17:09:05.349Z,2.80
2023-04-08T17:12:06.665Z,2.80
2023-04-08T17:15:08.144Z,2.53
2023-04-08T17:18:09.473Z,2.90
2023-04-08T17:21:10.756Z,2.38
2023-04-08T17:24:12.057Z,2.80
2023-04-08T17:27:13.338Z,2.97
2023-04-08T17:30:14.632Z,2.50
2023-04-08T17:33:15.968Z,3.38
2023-04-08T17:36:17.273Z,2.97
2023-04-08T17:39:18.586Z,2.50
2023-04-08T17:42:19.898Z,2.95
2023-04-08T17:45:21.193Z,2.85
2023-04-08T17:48:22.522Z,2.65
2023-04-08T17:51:23.799Z,2.63
2023-04-08T17:54:25.107Z,3.03
2023-04-08T17:57:26.418Z,3.45
2023-04-08T18:00:27.719Z,2.90
2023-04-08T18:03:29.118Z,2.78
2023-04-08T18:06:30.436Z,2.92
2023-04-08T18:09:31.765Z,2.37
2023-04-08T18:12:33.071Z,3.17
2023-04-08T18:15:34.364Z,3.53
2023-04-08T18:18:35.683Z,2.95
2023-04-08T18:21:36.981Z,2.95
2023-04-08T18:24:38.293Z,2.63
2023-04-08T18:27:39.585Z,3.70
2023-04-08T18:30:40.920Z,3.10
2023-04-08T18:33:42.268Z,2.90
2023-04-08T18:36:43.564Z,3.58
2023-04-08T18:39:44.875Z,2.57
2023-04-08T18:42:46.167Z,3.03
2023-04-08T18:45:47.501Z,3.55
2023-04-08T18:48:48.845Z,3.58
2023-04-08T18:52:01.334Z,3.92
2023-04-08T18:55:04.129Z,3.37
2023-04-08T18:58:05.438Z,4.35
2023-04-08T19:01:06.758Z,3.17
2023-04-08T19:04:08.216Z,3.72
2023-04-08T19:07:09.576Z,3.65
2023-04-08T19:10:10.885Z,3.90
2023-04-08T19:13:12.168Z,4.20
2023-04-08T19:16:13.488Z,4.25
2023-04-08T19:19:14.793Z,4.25
2023-04-08T19:22:16.102Z,3.95
2023-04-08T19:25:17.474Z,4.80
2023-04-08T19:28:18.808Z,4.20
2023-04-08T19:31:20.212Z,3.95
2023-04-08T19:34:21.549Z,4.15
2023-04-08T19:37:22.867Z,4.20
2023-04-08T19:40:24.161Z,3.60
2023-04-08T19:43:25.497Z,4.10
2023-04-08T19:46:26.796Z,4.43
2023-04-08T19:49:28.112Z,4.40
2023-04-08T19:52:29.398Z,4.60
2023-04-08T19:55:30.703Z,4.30
2023-04-08T19:58:31.991Z,4.90
2023-04-08T20:01:33.390Z,3.30
2023-04-08T20:04:34.760Z,4.40
2023-04-08T20:07:36.090Z,4.57
2023-04-08T20:10:37.460Z,4.63
2023-04-08T20:13:38.752Z,4.20
2023-04-08T20:16:40.056Z,4.63
2023-04-08T20:19:41.364Z,4.75
2023-04-08T20:22:42.673Z,4.68
2023-04-08T20:25:43.956Z,3.93
2023-04-08T20:28:45.254Z,4.25
2023-04-08T20:31:46.573Z,4.63
2023-04-08T20:34:47.892Z,3.90
2023-04-08T20:37:49.206Z,3.70
2023-04-08T20:40:50.524Z,4.90
2023-04-08T20:43:51.816Z,4.43
2023-04-08T20:46:53.132Z,4.35
2023-04-08T20:49:54.463Z,3.92
2023-04-08T20:52:55.797Z,4.20
2023-04-08T20:55:57.094Z,4.40
2023-04-08T20:59:00.327Z,4.75
2023-04-08T21:02:01.930Z,4.43
2023-04-08T21:05:03.302Z,4.32
2023-04-08T21:08:04.607Z,4.00
2023-04-08T21:11:05.925Z,3.70
2023-04-08T21:14:07.253Z,4.70
2023-04-08T21:17:08.565Z,4.13
2023-04-08T21:20:09.861Z,4.15
2023-04-08T21:23:11.156Z,4.32
2023-04-08T21:26:12.481Z,4.37
2023-04-08T21:29:13.796Z,4.28
2023-04-08T21:32:15.158Z,5.45
2023-04-08T21:35:16.504Z,3.83
2023-04-08T21:38:17.822Z,4.22
2023-04-08T21:41:19.226Z,4.57
2023-04-08T21:44:20.536Z,4.38
2023-04-08T21:47:21.860Z,4.07
2023-04-08T21:50:23.169Z,4.90
2023-04-08T21:53:24.540Z,4.20
2023-04-08T21:56:25.863Z,4.27
2023-04-08T21:59:27.167Z,4.15
2023-04-08T22:02:28.633Z,5.47
2023-04-08T22:05:30.022Z,3.72
2023-04-08T22:08:31.315Z,3.53
2023-04-08T22:11:32.612Z,4.20
2023-04-08T22:14:33.885Z,3.90
2023-04-08T22:17:35.181Z,3.60
2023-04-08T22:20:36.539Z,4.35
2023-04-08T22:23:37.844Z,3.75
2023-04-08T22:26:39.142Z,3.67
2023-04-08T22:29:40.443Z,4.05
2023-04-08T22:32:41.772Z,3.72
2023-04-08T22:35:43.090Z,4.15
2023-04-08T22:38:44.445Z,4.20
2023-04-08T22:41:45.758Z,3.87
2023-04-08T22:44:47.056Z,4.18
2023-04-08T22:47:48.415Z,3.78
2023-04-08T22:50:49.735Z,4.00
2023-04-08T22:53:51.026Z,4.05
2023-04-08T22:56:52.341Z,4.43
2023-04-08T22:59:53.633Z,3.90
2023-04-08T23:02:55.018Z,3.83
2023-04-08T23:05:56.437Z,3.65
2023-04-08T23:08:57.732Z,3.95
2023-04-08T23:11:59.026Z,4.07
2023-04-08T23:15:00.320Z,3.60
2023-04-08T23:18:01.615Z,3.72
2023-04-08T23:21:02.914Z,4.03
2023-04-08T23:24:04.222Z,3.40
2023-04-08T23:27:05.523Z,3.30
2023-04-08T23:30:06.823Z,3.20
2023-04-08T23:33:08.123Z,3.75
2023-04-08T23:36:09.473Z,3.17
2023-04-08T23:39:10.821Z,4.38
2023-04-08T23:42:12.114Z,3.10
2023-04-08T23:45:13.420Z,3.83
2023-04-08T23:48:14.712Z,3.67
2023-04-08T23:51:16.050Z,3.30
2023-04-08T23:54:17.366Z,3.05
2023-04-08T23:57:18.670Z,3.27
